Alamosa, Colorado
Current Conditions -  °F | °C
As of 9:52 AM on Thursday 27 Nov 2014 (Local Time) from KALS Reporting Station
Clear Clear  
Wind Chill: 37°   Ceiling: Unl
Heat Index: 37°   Visibility: 10mi
Dew Point: 18°   Wind: 0mph
Humidity: 46%   Direction: NA
Pressure: 30.52"   Gusts: NA
Location:  37.47°N, 105.87°W
Report Text: KALS 271652Z AUTO 00000KT 10SM CLR 03/M08 A3052 RMK AO2 SLP354 T00281078
Loading
Personal Weather Stations






























Interactive Weather Map New forecast layout! Learn more

10-Day Weather Forecast

Advertisements
Track Severe Weather on mobile